Time;durP1;ratioP1;P1;durP2;ratioP2;P2;SDS_P1;SDS_P2;PMS_P1;PMS_P2;Temp;Humidity;BMP_temperature;BMP_pressure;BME280_temperature;BME280_humidity;BME280_pressure;Samples;Min_cycle;Max_cycle;Signal;HPM_P1;HPM_P2
2021/10/26 00:00:00;;;;;;;13.57;9.43;;;;;;;9.70;100.00;101156.03;697420;28;1476;-55
2021/10/26 00:00:21;;;;;;;13.10;9.43;;;;;;;9.71;100.00;101160.41;695153;28;1051;-52
2021/10/26 00:00:43;;;;;;;12.93;9.27;;;;;;;9.69;100.00;101168.22;691925;28;1049;-56
2021/10/26 00:01:03;;;;;;;11.98;8.65;;;;;;;9.70;100.00;101163.88;691733;28;1448;-53
2021/10/26 00:01:24;;;;;;;12.02;8.60;;;;;;;9.70;100.00;101164.72;689819;28;1211;-50
2021/10/26 00:01:44;;;;;;;16.13;10.10;;;;;;;9.69;100.00;101170.84;688906;28;4674;-55
2021/10/26 00:02:05;;;;;;;22.95;12.73;;;;;;;9.68;100.00;101165.63;690350;28;1362;-54
2021/10/26 00:02:25;;;;;;;21.17;12.57;;;;;;;9.68;100.00;101168.22;692722;28;1143;-51
2021/10/26 00:02:46;;;;;;;18.50;11.40;;;;;;;9.67;100.00;101169.06;694095;28;2007;-52
2021/10/26 00:03:06;;;;;;;21.83;13.43;;;;;;;9.67;100.00;101166.47;694594;28;2273;-53
2021/10/26 00:03:26;;;;;;;22.58;13.38;;;;;;;9.67;100.00;101169.06;695059;28;1206;-54
2021/10/26 00:03:47;;;;;;;22.23;12.97;;;;;;;9.67;100.00;101172.56;695247;28;1055;-52
2021/10/26 00:04:08;;;;;;;24.17;13.05;;;;;;;9.65;100.00;101169.06;695247;28;1483;-51
2021/10/26 00:04:28;;;;;;;22.13;13.15;;;;;;;9.65;100.00;101170.78;696140;28;1399;-51
2021/10/26 00:04:49;;;;;;;25.00;13.43;;;;;;;9.65;100.00;101165.56;694492;28;4415;-52
2021/10/26 00:05:10;;;;;;;22.60;12.90;;;;;;;9.65;100.00;101170.78;694674;28;1323;-52
2021/10/26 00:05:31;;;;;;;22.42;12.77;;;;;;;9.65;100.00;101171.69;696255;28;1333;-53
2021/10/26 00:05:51;;;;;;;20.92;12.50;;;;;;;9.65;100.00;101168.19;695499;28;1756;-49
2021/10/26 00:06:12;;;;;;;21.80;11.73;;;;;;;9.65;100.00;101165.56;694441;28;3545;-51
2021/10/26 00:06:32;;;;;;;21.73;12.00;;;;;;;9.65;100.00;101170.78;695116;28;1209;-52
2021/10/26 00:06:53;;;;;;;18.98;11.52;;;;;;;9.66;100.00;101170.81;697921;28;1412;-52
2021/10/26 00:07:13;;;;;;;18.13;11.67;;;;;;;9.67;100.00;101167.34;697770;28;1317;-60
2021/10/26 00:07:34;;;;;;;17.42;12.00;;;;;;;9.67;100.00;101162.09;697881;28;1242;-52
2021/10/26 00:07:54;;;;;;;19.47;12.20;;;;;;;9.67;100.00;101164.72;695686;28;5401;-53
2021/10/26 00:08:14;;;;;;;22.25;12.65;;;;;;;9.66;100.00;101167.31;698681;28;1265;-54
2021/10/26 00:08:35;;;;;;;20.63;12.13;;;;;;;9.67;100.00;101167.34;695859;28;1305;-53
2021/10/26 00:08:56;;;;;;;17.93;10.97;;;;;;;9.68;100.00;101171.69;694413;28;1225;-49
2021/10/26 00:09:16;;;;;;;18.95;11.20;;;;;;;9.69;100.00;101169.94;694349;28;2232;-52
2021/10/26 00:09:36;;;;;;;19.25;11.45;;;;;;;9.69;100.00;101168.22;695607;28;1433;-51
2021/10/26 00:09:59;;;;;;;16.27;10.83;;;;;;;9.70;100.00;101166.47;694869;28;1073;-53
2021/10/26 00:10:19;;;;;;;16.23;10.32;;;;;;;9.73;100.00;101169.09;695603;28;1253;-50
2021/10/26 00:10:40;;;;;;;17.33;10.13;;;;;;;9.74;100.00;101170.00;695351;28;1296;-51
2021/10/26 00:11:00;;;;;;;14.60;9.70;;;;;;;9.73;100.00;101168.25;694985;28;5498;-51
2021/10/26 00:11:20;;;;;;;14.90;9.80;;;;;;;9.73;100.00;101170.84;695644;28;1238;-53
2021/10/26 00:11:41;;;;;;;16.17;10.17;;;;;;;9.73;100.00;101168.25;694999;28;1194;-51
2021/10/26 00:12:03;;;;;;;15.93;10.23;;;;;;;9.73;100.00;101171.72;695460;28;1345;-50
2021/10/26 00:12:24;;;;;;;15.35;9.73;;;;;;;9.76;100.00;101174.38;694974;28;3846;-51
2021/10/26 00:12:44;;;;;;;12.65;9.20;;;;;;;9.77;100.00;101170.00;694868;28;1102;-50
2021/10/26 00:13:04;;;;;;;12.63;9.40;;;;;;;9.76;100.00;101178.69;696889;28;1022;-53
2021/10/26 00:13:25;;;;;;;12.68;8.90;;;;;;;9.79;100.00;101166.56;695539;28;1270;-51
2021/10/26 00:13:45;;;;;;;10.73;8.03;;;;;;;9.96;100.00;101171.88;695319;28;4474;-51
2021/10/26 00:14:05;;;;;;;10.05;7.40;;;;;;;10.07;100.00;101169.31;695166;28;1496;-50
2021/10/26 00:14:26;;;;;;;11.13;7.43;;;;;;;10.14;100.00;101165.00;695212;28;1278;-52
2021/10/26 00:14:48;;;;;;;11.48;7.47;;;;;;;10.12;100.00;101167.63;694714;28;876;-54
2021/10/26 00:15:11;;;;;;;10.68;7.28;;;;;;;10.07;100.00;101164.09;694595;28;1373;-55
2021/10/26 00:15:32;;;;;;;12.02;7.47;;;;;;;10.05;100.00;101171.03;695485;28;2021;-53
2021/10/26 00:15:53;;;;;;;11.67;7.40;;;;;;;10.01;100.00;101169.28;694935;28;3476;-54
2021/10/26 00:16:13;;;;;;;10.52;7.25;;;;;;;9.97;100.00;101168.41;695273;28;1084;-53
2021/10/26 00:16:34;;;;;;;10.00;7.07;;;;;;;10.00;100.00;101170.16;694336;28;1101;-54
2021/10/26 00:16:55;;;;;;;9.85;6.78;;;;;;;10.04;100.00;101166.72;692523;28;4388;-54
2021/10/26 00:17:16;;;;;;;8.80;6.57;;;;;;;10.05;100.00;101168.44;692842;28;1270;-51
2021/10/26 00:17:36;;;;;;;8.75;6.60;;;;;;;10.05;100.00;101165.81;692594;28;1294;-52
2021/10/26 00:17:57;;;;;;;9.80;6.67;;;;;;;10.03;100.00;101171.03;692936;28;1254;-53
2021/10/26 00:18:18;;;;;;;9.48;6.70;;;;;;;9.99;100.00;101165.78;692875;28;1227;-53
2021/10/26 00:18:38;;;;;;;8.52;6.13;;;;;;;9.98;100.00;101170.16;692516;28;1234;-51
2021/10/26 00:18:59;;;;;;;9.30;6.38;;;;;;;9.96;100.00;101169.25;691669;28;3290;-52
2021/10/26 00:19:20;;;;;;;9.38;6.82;;;;;;;9.96;100.00;101171.00;692539;28;1166;-52
2021/10/26 00:19:41;;;;;;;9.25;6.88;;;;;;;9.94;100.00;101165.78;690951;28;4442;-51
2021/10/26 00:20:05;;;;;;;8.00;6.32;;;;;;;9.95;100.00;101169.25;691395;28;1184;-53
2021/10/26 00:20:26;;;;;;;9.70;6.90;;;;;;;9.93;100.00;101164.03;692452;28;1436;-52
2021/10/26 00:20:46;;;;;;;9.90;6.90;;;;;;;9.93;100.00;101166.63;692027;28;1257;-53
2021/10/26 00:21:07;;;;;;;11.00;6.90;;;;;;;9.98;100.00;101170.16;692601;28;1266;-52
2021/10/26 00:21:27;;;;;;;9.07;6.47;;;;;;;9.97;100.00;101168.41;692651;28;1230;-53
2021/10/26 00:21:47;;;;;;;9.27;6.60;;;;;;;9.96;100.00;101165.78;692340;28;1140;-54
2021/10/26 00:22:08;;;;;;;14.20;8.63;;;;;;;9.94;100.00;101165.78;691993;28;3620;-53
2021/10/26 00:22:28;;;;;;;14.50;8.70;;;;;;;9.91;100.00;101168.34;692638;28;1506;-53
2021/10/26 00:22:49;;;;;;;12.10;7.67;;;;;;;9.93;100.00;101166.63;692559;28;4350;-53
2021/10/26 00:23:09;;;;;;;12.32;7.60;;;;;;;9.93;100.00;101163.13;695171;28;2332;-52
2021/10/26 00:23:30;;;;;;;11.40;7.13;;;;;;;9.93;100.00;101165.75;694340;28;1316;-52
2021/10/26 00:23:53;;;;;;;8.93;6.70;;;;;;;9.93;100.00;101165.75;694758;28;1289;-52
2021/10/26 00:24:13;;;;;;;10.52;7.00;;;;;;;9.91;100.00;101167.50;695850;28;1222;-52
2021/10/26 00:24:34;;;;;;;12.20;7.18;;;;;;;9.90;100.00;101166.63;697915;28;1233;-53
2021/10/26 00:24:54;;;;;;;11.73;6.57;;;;;;;9.89;100.00;101168.34;695091;28;1220;-53
2021/10/26 00:25:15;;;;;;;11.18;6.97;;;;;;;9.87;100.00;101164.88;695072;28;3318;-49
2021/10/26 00:25:36;;;;;;;12.07;7.80;;;;;;;9.83;100.00;101168.31;693746;28;3695;-51
2021/10/26 00:25:56;;;;;;;14.43;8.23;;;;;;;9.81;100.00;101164.81;694776;28;4348;-51
2021/10/26 00:26:16;;;;;;;12.68;7.72;;;;;;;9.79;100.00;101161.34;694736;28;1160;-53
2021/10/26 00:26:37;;;;;;;11.50;7.03;;;;;;;9.80;100.00;101164.81;695475;28;1230;-52
2021/10/26 00:26:57;;;;;;;10.27;7.10;;;;;;;9.80;100.00;101170.03;695710;28;1213;-51
2021/10/26 00:27:18;;;;;;;9.83;6.80;;;;;;;9.80;100.00;101170.03;695715;28;1206;-52
2021/10/26 00:27:39;;;;;;;10.88;6.72;;;;;;;9.82;100.00;101163.09;694291;28;1329;-52
2021/10/26 00:27:59;;;;;;;11.00;6.60;;;;;;;9.81;100.00;101170.03;692071;28;1282;-51
2021/10/26 00:28:19;;;;;;;10.53;6.93;;;;;;;9.82;100.00;101166.56;688852;28;1506;-53
2021/10/26 00:28:41;;;;;;;11.10;7.22;;;;;;;9.81;100.00;101166.56;688719;28;4336;-53
2021/10/26 00:29:02;;;;;;;11.70;7.22;;;;;;;9.80;100.00;101168.31;689083;28;1093;-52
2021/10/26 00:29:23;;;;;;;10.65;7.10;;;;;;;9.80;100.00;101164.81;688520;28;1386;-50
2021/10/26 00:29:43;;;;;;;10.40;6.80;;;;;;;9.80;100.00;101164.81;692595;28;994;-51
2021/10/26 00:30:06;;;;;;;9.23;6.40;;;;;;;9.81;100.00;101166.56;693908;28;875;-55
2021/10/26 00:30:30;;;;;;;9.48;6.50;;;;;;;9.80;100.00;101163.09;693456;28;1341;-52
2021/10/26 00:30:50;;;;;;;9.80;6.78;;;;;;;9.81;100.00;101170.03;693677;28;1230;-51
2021/10/26 00:31:11;;;;;;;9.23;6.45;;;;;;;9.81;100.00;101162.19;693492;28;1364;-55
2021/10/26 00:31:32;;;;;;;8.98;6.32;;;;;;;9.82;100.00;101166.56;693681;28;1498;-51
2021/10/26 00:31:54;;;;;;;10.18;6.53;;;;;;;9.84;100.00;101164.84;692092;28;4429;-51
2021/10/26 00:32:15;;;;;;;9.32;6.45;;;;;;;9.84;100.00;101164.84;693833;28;1503;-53
2021/10/26 00:32:35;;;;;;;11.52;6.47;;;;;;;9.84;100.00;101166.56;693928;28;1245;-51
2021/10/26 00:32:57;;;;;;;11.67;6.43;;;;;;;9.82;100.00;101166.56;692070;28;1377;-53
2021/10/26 00:33:18;;;;;;;9.82;6.55;;;;;;;9.81;100.00;101161.34;691789;28;1255;-50
2021/10/26 00:33:38;;;;;;;11.03;6.57;;;;;;;9.80;100.00;101167.41;692604;28;1231;-54
2021/10/26 00:33:59;;;;;;;10.40;6.60;;;;;;;9.80;100.00;101170.91;689686;28;1404;-54
2021/10/26 00:34:19;;;;;;;10.05;6.60;;;;;;;9.81;100.00;101161.34;689657;28;2268;-50
2021/10/26 00:34:40;;;;;;;8.83;5.87;;;;;;;9.82;100.00;101169.19;689271;28;1067;-54
2021/10/26 00:35:01;;;;;;;9.05;5.78;;;;;;;9.82;100.00;101166.56;691575;28;4588;-51
2021/10/26 00:35:21;;;;;;;9.35;6.22;;;;;;;9.81;100.00;101172.66;688848;28;1259;-52
2021/10/26 00:35:42;;;;;;;8.98;6.32;;;;;;;9.81;100.00;101167.41;685909;28;1967;-50
2021/10/26 00:36:03;;;;;;;8.48;6.63;;;;;;;9.81;100.00;101171.78;685608;28;1275;-50
2021/10/26 00:36:24;;;;;;;8.87;6.50;;;;;;;9.79;100.00;101171.78;688916;28;1330;-52
2021/10/26 00:36:45;;;;;;;8.30;6.10;;;;;;;9.79;100.00;101168.28;685895;28;1510;-54
2021/10/26 00:37:05;;;;;;;8.33;6.43;;;;;;;9.79;100.00;101170.88;689257;28;1388;-50
2021/10/26 00:37:26;;;;;;;9.18;6.45;;;;;;;9.78;100.00;101172.63;690046;28;1433;-53
2021/10/26 00:37:46;;;;;;;8.93;6.50;;;;;;;9.76;100.00;101171.75;689168;28;4508;-51
2021/10/26 00:38:07;;;;;;;9.30;6.50;;;;;;;9.75;100.00;101174.34;691928;28;2084;-51
2021/10/26 00:38:28;;;;;;;9.45;6.57;;;;;;;9.74;100.00;101176.09;690120;28;1925;-50
2021/10/26 00:38:49;;;;;;;10.38;6.60;;;;;;;9.74;100.00;101170.88;687772;28;1467;-52
2021/10/26 00:39:09;;;;;;;9.00;6.10;;;;;;;9.74;100.00;101176.09;692272;28;1420;-55
2021/10/26 00:39:31;;;;;;;8.35;5.93;;;;;;;9.75;100.00;101169.13;693412;28;1199;-51
2021/10/26 00:39:51;;;;;;;9.23;5.78;;;;;;;9.74;100.00;101176.09;696222;28;1143;-53
2021/10/26 00:40:14;;;;;;;10.40;6.23;;;;;;;9.74;100.00;101176.09;695048;28;1375;-53
2021/10/26 00:40:34;;;;;;;10.20;6.25;;;;;;;9.73;100.00;101170.84;696965;28;1265;-52
2021/10/26 00:40:56;;;;;;;10.33;6.70;;;;;;;9.71;100.00;101181.28;696066;28;4362;-54
2021/10/26 00:41:18;;;;;;;9.40;6.43;;;;;;;9.71;100.00;101176.94;695725;28;1270;-51
2021/10/26 00:41:39;;;;;;;8.80;6.40;;;;;;;9.71;100.00;101176.06;694093;28;2208;-53
2021/10/26 00:41:59;;;;;;;8.77;6.57;;;;;;;9.71;100.00;101173.47;694577;28;1243;-53
2021/10/26 00:42:20;;;;;;;8.63;6.65;;;;;;;9.70;100.00;101169.97;692059;28;1708;-53
2021/10/26 00:42:42;;;;;;;9.00;6.80;;;;;;;9.70;100.00;101174.31;688547;28;1465;-55
2021/10/26 00:43:02;;;;;;;8.35;6.30;;;;;;;9.71;100.00;101171.72;689979;28;1914;-53
2021/10/26 00:43:23;;;;;;;9.47;5.83;;;;;;;9.72;100.00;101172.59;688285;28;1381;-53
2021/10/26 00:43:43;;;;;;;9.55;6.43;;;;;;;9.71;100.00;101173.47;687745;28;4350;-50
2021/10/26 00:44:05;;;;;;;10.30;6.83;;;;;;;9.71;100.00;101170.84;688258;28;2012;-53
2021/10/26 00:44:29;;;;;;;9.60;6.90;;;;;;;9.70;100.00;101179.53;686476;28;1439;-54
2021/10/26 00:44:51;;;;;;;10.57;6.80;;;;;;;9.71;100.00;101170.84;686388;28;3850;-55
2021/10/26 00:45:12;;;;;;;11.27;7.10;;;;;;;9.71;100.00;101176.06;684412;28;1304;-51
2021/10/26 00:45:32;;;;;;;11.48;7.32;;;;;;;9.70;100.00;101172.56;685405;28;1563;-53
2021/10/26 00:45:53;;;;;;;9.80;7.07;;;;;;;9.70;100.00;101171.69;685500;28;1365;-53
2021/10/26 00:46:27;;;;;;;10.27;7.20;;;;;;;9.70;100.00;101169.09;688474;28;1077;-51
2021/10/26 00:46:48;;;;;;;9.18;6.97;;;;;;;9.70;100.00;101166.47;687772;28;4313;-51
2021/10/26 00:47:10;;;;;;;9.88;7.00;;;;;;;9.70;100.00;101171.69;688912;28;1347;-51
2021/10/26 00:47:30;;;;;;;9.37;6.80;;;;;;;9.69;100.00;101172.56;688218;28;1550;-52
2021/10/26 00:47:51;;;;;;;10.38;7.03;;;;;;;9.71;100.00;101170.84;688315;28;3226;-52
2021/10/26 00:48:12;;;;;;;9.10;7.03;;;;;;;9.71;100.00;101174.31;689096;28;2325;-51
2021/10/26 00:48:34;;;;;;;9.98;6.80;;;;;;;9.71;100.00;101171.72;687535;28;1084;-50
2021/10/26 00:48:56;;;;;;;9.63;7.13;;;;;;;9.71;100.00;101170.84;690120;28;1321;-50
2021/10/26 00:49:16;;;;;;;9.13;6.80;;;;;;;9.72;100.00;101167.38;690956;28;1190;-53
2021/10/26 00:49:37;;;;;;;10.02;6.85;;;;;;;9.70;100.00;101175.19;688536;28;1251;-55
2021/10/26 00:49:57;;;;;;;9.60;6.90;;;;;;;9.71;100.00;101171.72;689547;28;4403;-50
2021/10/26 00:50:18;;;;;;;9.63;6.75;;;;;;;9.71;100.00;101168.25;687935;28;1576;-54
2021/10/26 00:50:41;;;;;;;11.47;6.90;;;;;;;9.73;100.00;101173.47;688186;28;1257;-53
2021/10/26 00:51:02;;;;;;;10.75;6.70;;;;;;;9.73;100.00;101173.47;692585;28;2144;-50
2021/10/26 00:51:22;;;;;;;9.63;6.90;;;;;;;9.73;100.00;101171.72;692925;28;3442;-53
2021/10/26 00:51:43;;;;;;;9.27;6.87;;;;;;;9.71;100.00;101171.72;692290;28;1530;-54
2021/10/26 00:52:04;;;;;;;10.23;7.03;;;;;;;9.73;100.00;101174.31;689280;28;1421;-51
2021/10/26 00:52:26;;;;;;;9.60;6.43;;;;;;;9.72;100.00;101172.59;688894;28;1081;-53
2021/10/26 00:52:47;;;;;;;8.32;6.45;;;;;;;9.73;100.00;101171.72;686738;28;4466;-54
2021/10/26 00:53:08;;;;;;;9.25;6.60;;;;;;;9.72;100.00;101167.38;690363;28;1050;-53
2021/10/26 00:53:28;;;;;;;10.17;7.23;;;;;;;9.74;100.00;101170.00;690977;28;1333;-53
2021/10/26 00:53:50;;;;;;;9.65;7.40;;;;;;;9.73;100.00;101168.25;691561;28;1425;-51
2021/10/26 00:54:11;;;;;;;11.80;7.55;;;;;;;9.71;100.00;101161.28;692021;28;1270;-50
2021/10/26 00:54:37;;;;;;;9.40;7.05;;;;;;;9.72;100.00;101172.59;685027;28;4031;-51
2021/10/26 00:55:04;;;;;;;9.48;6.43;;;;;;;9.74;100.00;101170.00;686080;28;1196;-51
2021/10/26 00:55:25;;;;;;;8.80;6.05;;;;;;;9.73;100.00;101171.72;688585;28;3041;-51
2021/10/26 00:55:49;;;;;;;8.43;6.33;;;;;;;9.76;100.00;101169.16;690001;28;4338;-53
2021/10/26 00:56:09;;;;;;;7.25;5.85;;;;;;;9.77;100.00;101170.88;690149;28;1501;-50
2021/10/26 00:56:32;;;;;;;8.17;5.80;;;;;;;9.79;100.00;101177.00;689242;28;1377;-50
2021/10/26 00:56:53;;;;;;;8.88;6.30;;;;;;;9.80;100.00;101173.53;689191;28;1163;-51
2021/10/26 00:57:17;;;;;;;8.32;6.65;;;;;;;9.79;100.00;101169.16;691288;28;1442;-54
2021/10/26 00:57:38;;;;;;;9.93;7.05;;;;;;;9.80;100.00;101177.84;690045;28;4567;-50
2021/10/26 00:58:03;;;;;;;9.95;7.00;;;;;;;9.79;100.00;101173.50;691109;28;1127;-52
2021/10/26 00:58:24;;;;;;;9.57;6.93;;;;;;;9.77;100.00;101177.84;694909;28;1331;-50
2021/10/26 00:58:48;;;;;;;10.23;7.40;;;;;;;9.75;100.00;101174.34;691814;28;4571;-52
2021/10/26 00:59:08;;;;;;;9.60;7.38;;;;;;;9.74;100.00;101181.31;689246;28;1487;-53
2021/10/26 00:59:33;;;;;;;11.48;7.43;;;;;;;9.73;100.00;101176.94;682638;28;1551;-51
2021/10/26 00:59:55;;;;;;;10.38;7.15;;;;;;;9.72;100.00;101177.81;684427;28;1306;-49
2021/10/26 01:00:16;;;;;;;9.32;7.50;;;;;;;9.73;100.00;101174.31;688886;28;1275;-49
2021/10/26 01:00:37;;;;;;;11.40;7.40;;;;;;;9.73;100.00;101182.16;688224;28;1219;-52
2021/10/26 01:01:01;;;;;;;10.38;7.32;;;;;;;9.74;100.00;101178.69;693383;28;3776;-49
2021/10/26 01:01:22;;;;;;;11.35;7.35;;;;;;;9.75;100.00;101180.44;692645;28;1502;-50
2021/10/26 01:01:42;;;;;;;10.73;7.38;;;;;;;9.74;100.00;101178.69;688572;28;4483;-50
2021/10/26 01:02:05;;;;;;;9.25;6.80;;;;;;;9.74;100.00;101181.31;689273;28;1479;-53
2021/10/26 01:02:25;;;;;;;8.10;6.20;;;;;;;9.75;100.00;101180.44;689813;28;1369;-51
2021/10/26 01:02:48;;;;;;;9.35;6.60;;;;;;;9.76;100.00;101178.69;689311;28;1983;-51
2021/10/26 01:03:18;;;;;;;9.40;6.97;;;;;;;9.75;100.00;101180.44;688814;28;2118;-53
2021/10/26 01:03:42;;;;;;;9.35;7.18;;;;;;;9.73;100.00;101174.31;689110;28;1397;-56
2021/10/26 01:04:03;;;;;;;9.23;7.30;;;;;;;9.71;100.00;101176.94;686825;28;3156;-52
2021/10/26 01:04:24;;;;;;;11.00;7.57;;;;;;;9.72;100.00;101180.44;688611;28;3060;-52
2021/10/26 01:04:45;;;;;;;9.57;7.38;;;;;;;9.73;100.00;101173.47;685514;28;4776;-51
2021/10/26 01:05:06;;;;;;;9.65;6.95;;;;;;;9.70;100.00;101176.94;688078;28;1483;-50
2021/10/26 01:05:27;;;;;;;10.05;7.57;;;;;;;9.70;100.00;101179.53;686166;28;1405;-51
2021/10/26 01:05:49;;;;;;;10.85;7.45;;;;;;;9.71;100.00;101176.06;688029;28;1665;-52
2021/10/26 01:06:11;;;;;;;10.30;7.63;;;;;;;9.71;100.00;101181.28;688059;28;1409;-50
2021/10/26 01:06:31;;;;;;;10.15;7.70;;;;;;;9.70;100.00;101177.78;690226;28;1379;-50
2021/10/26 01:06:55;;;;;;;9.40;7.50;;;;;;;9.70;100.00;101176.94;692753;28;1159;-52
2021/10/26 01:07:16;;;;;;;10.73;7.63;;;;;;;9.70;100.00;101179.53;691300;28;3168;-49
2021/10/26 01:07:36;;;;;;;10.50;7.63;;;;;;;9.70;100.00;101182.16;690462;28;4145;-50
2021/10/26 01:07:57;;;;;;;8.57;6.88;;;;;;;9.71;100.00;101178.69;690573;28;4605;-53
2021/10/26 01:08:18;;;;;;;8.55;6.55;;;;;;;9.71;100.00;101178.69;689373;28;1611;-51
2021/10/26 01:08:40;;;;;;;9.75;7.10;;;;;;;9.71;100.00;101181.28;688810;28;1511;-52
2021/10/26 01:09:01;;;;;;;9.90;7.05;;;;;;;9.70;100.00;101180.41;689450;28;1263;-50
2021/10/26 01:09:22;;;;;;;10.32;7.55;;;;;;;9.70;100.00;101184.75;689134;28;1179;-51
2021/10/26 01:09:45;;;;;;;9.68;7.50;;;;;;;9.71;100.00;101178.69;686927;28;1519;-51
2021/10/26 01:10:07;;;;;;;10.60;7.20;;;;;;;9.70;100.00;101176.94;686927;28;1639;-53
2021/10/26 01:10:28;;;;;;;9.85;7.40;;;;;;;9.71;100.00;101176.06;683872;28;3375;-52
2021/10/26 01:10:51;;;;;;;12.23;7.97;;;;;;;9.71;100.00;101181.28;685055;28;4571;-52
2021/10/26 01:11:11;;;;;;;11.93;7.82;;;;;;;9.71;100.00;101178.69;687219;28;1283;-50
2021/10/26 01:11:34;;;;;;;10.95;7.70;;;;;;;9.70;100.00;101185.63;688246;28;1904;-54
2021/10/26 01:11:55;;;;;;;11.65;7.80;;;;;;;9.70;100.00;101180.41;689809;28;1553;-50
2021/10/26 01:12:16;;;;;;;10.18;7.97;;;;;;;9.69;100.00;101178.69;688791;28;1284;-50
2021/10/26 01:12:37;;;;;;;10.00;7.97;;;;;;;9.70;100.00;101171.69;690616;28;1242;-51
2021/10/26 01:12:57;;;;;;;10.82;8.02;;;;;;;9.70;100.00;101179.53;692001;28;1695;-51
2021/10/26 01:13:22;;;;;;;10.07;7.95;;;;;;;9.70;100.00;101176.94;690709;28;1282;-54
2021/10/26 01:13:45;;;;;;;11.57;8.00;;;;;;;9.69;100.00;101172.56;693477;28;4572;-49
2021/10/26 01:14:06;;;;;;;10.57;8.07;;;;;;;9.69;100.00;101173.44;689526;28;3977;-53
2021/10/26 01:14:27;;;;;;;10.43;7.78;;;;;;;9.70;100.00;101176.94;690471;28;1306;-54
2021/10/26 01:14:55;;;;;;;10.45;7.57;;;;;;;9.69;100.00;101178.69;686687;28;1144;-51
2021/10/26 01:15:15;;;;;;;10.00;7.50;;;;;;;9.71;100.00;101165.63;689995;28;1335;-49
2021/10/26 01:15:36;;;;;;;9.20;7.65;;;;;;;9.75;100.00;101175.22;689660;28;1322;-53
2021/10/26 01:16:14;;;;;;;9.02;7.25;;;;;;;9.74;100.00;101178.69;691675;28;1274;-49
2021/10/26 01:16:38;;;;;;;9.82;7.40;;;;;;;9.75;100.00;101177.84;690024;28;1703;-50
2021/10/26 01:17:06;;;;;;;10.15;7.65;;;;;;;9.74;100.00;101176.09;690654;28;4340;-51
2021/10/26 01:17:27;;;;;;;10.40;7.55;;;;;;;9.75;100.00;101174.34;692456;28;1242;-50
2021/10/26 01:17:47;;;;;;;10.00;6.78;;;;;;;9.75;100.00;101175.22;691290;28;1398;-51
2021/10/26 01:18:09;;;;;;;10.38;7.22;;;;;;;9.75;100.00;101176.94;694483;28;1782;-51
2021/10/26 01:18:29;;;;;;;9.55;7.32;;;;;;;9.76;100.00;101174.38;696055;28;1432;-53
2021/10/26 01:18:50;;;;;;;9.15;6.88;;;;;;;9.76;100.00;101178.69;690704;28;1393;-51
2021/10/26 01:19:13;;;;;;;12.43;7.78;;;;;;;9.77;100.00;101177.84;687039;28;1619;-51
2021/10/26 01:19:46;;;;;;;12.23;7.72;;;;;;;9.79;100.00;101176.09;686269;28;1452;-54
2021/10/26 01:20:08;;;;;;;10.85;7.55;;;;;;;9.79;100.00;101173.50;687413;28;6440;-54
2021/10/26 01:20:29;;;;;;;11.75;7.82;;;;;;;9.80;100.00;101180.47;688888;28;3522;-52
2021/10/26 01:20:50;;;;;;;12.07;8.27;;;;;;;9.80;100.00;101172.63;688809;28;1374;-51
2021/10/26 01:21:10;;;;;;;12.25;8.73;;;;;;;9.81;100.00;101177.88;686717;28;1458;-53
2021/10/26 01:21:31;;;;;;;12.40;8.50;;;;;;;9.80;100.00;101176.16;687482;28;2789;-54
2021/10/26 01:21:51;;;;;;;12.45;8.40;;;;;;;9.79;100.00;101171.78;684481;28;1204;-52
2021/10/26 01:22:14;;;;;;;12.83;8.27;;;;;;;9.79;100.00;101174.38;686527;28;1349;-52
2021/10/26 01:22:40;;;;;;;11.88;8.15;;;;;;;9.78;100.00;101169.16;684682;28;1445;-50
2021/10/26 01:23:03;;;;;;;12.68;8.32;;;;;;;9.78;100.00;101172.63;680887;28;6036;-52
2021/10/26 01:23:25;;;;;;;11.10;8.07;;;;;;;9.78;100.00;101177.84;683897;28;3130;-50
2021/10/26 01:23:45;;;;;;;12.27;8.20;;;;;;;9.78;100.00;101177.00;682167;28;3747;-53
2021/10/26 01:24:06;;;;;;;12.43;8.20;;;;;;;9.77;100.00;101170.00;685223;28;1310;-55
2021/10/26 01:24:27;;;;;;;11.38;7.93;;;;;;;9.77;100.00;101175.25;685194;28;1730;-53
2021/10/26 01:24:48;;;;;;;12.15;7.95;;;;;;;9.78;100.00;101172.63;684335;28;1445;-51
2021/10/26 01:25:11;;;;;;;11.93;8.07;;;;;;;9.79;100.00;101176.09;683925;28;1451;-53
2021/10/26 01:25:35;;;;;;;9.18;7.45;;;;;;;9.78;100.00;101175.25;684513;28;1467;-51
2021/10/26 01:25:56;;;;;;;10.25;7.55;;;;;;;9.80;100.00;101172.63;687024;28;4415;-50
2021/10/26 01:26:16;;;;;;;11.60;7.30;;;;;;;9.80;100.00;101181.38;689910;28;1253;-51
2021/10/26 01:26:38;;;;;;;10.73;7.05;;;;;;;9.80;100.00;101175.25;690796;28;2154;-51
2021/10/26 01:27:01;;;;;;;10.13;7.20;;;;;;;9.80;100.00;101172.63;689710;28;4073;-52
2021/10/26 01:27:23;;;;;;;9.95;7.07;;;;;;;9.81;100.00;101177.00;686385;28;1310;-49
2021/10/26 01:27:53;;;;;;;10.20;7.07;;;;;;;9.80;100.00;101173.53;687332;28;1190;-51
2021/10/26 01:28:15;;;;;;;9.18;7.28;;;;;;;9.81;100.00;101177.00;687684;28;1362;-52
2021/10/26 01:28:36;;;;;;;9.63;7.07;;;;;;;9.80;100.00;101173.53;692506;28;1595;-50
2021/10/26 01:28:56;;;;;;;9.48;6.63;;;;;;;9.80;100.00;101176.16;688827;28;4790;-53
2021/10/26 01:29:16;;;;;;;10.37;6.67;;;;;;;9.82;100.00;101178.75;691830;28;1359;-54
2021/10/26 01:29:38;;;;;;;10.20;6.97;;;;;;;9.82;100.00;101174.41;689743;28;1252;-50
2021/10/26 01:30:00;;;;;;;9.10;7.10;;;;;;;9.84;100.00;101172.69;691213;28;3773;-55
2021/10/26 01:30:25;;;;;;;8.30;6.68;;;;;;;9.86;100.00;101177.91;691350;28;1330;-53
2021/10/26 01:30:46;;;;;;;10.30;6.70;;;;;;;9.86;100.00;101172.69;689323;28;1291;-55
2021/10/26 01:31:27;;;;;;;9.85;7.00;;;;;;;9.85;100.00;101174.41;689148;28;1188;-52
2021/10/26 01:32:03;;;;;;;11.13;7.20;;;;;;;9.84;100.00;101175.31;690013;28;4771;-52
2021/10/26 01:32:28;;;;;;;8.63;6.70;;;;;;;9.83;100.00;101175.25;692271;28;1322;-50
2021/10/26 01:33:04;;;;;;;9.50;6.90;;;;;;;9.81;100.00;101177.00;694012;28;3539;-54
2021/10/26 01:33:34;;;;;;;10.07;7.10;;;;;;;9.81;100.00;101172.66;692899;28;1434;-54
2021/10/26 01:34:03;;;;;;;9.13;6.78;;;;;;;9.81;100.00;101172.66;691838;28;1410;-51
2021/10/26 01:34:30;;;;;;;8.80;6.70;;;;;;;9.83;100.00;101170.94;692668;28;1393;-50
2021/10/26 01:34:51;;;;;;;9.45;6.80;;;;;;;9.86;100.00;101176.16;690902;28;4363;-54
2021/10/26 01:35:11;;;;;;;10.15;6.75;;;;;;;9.85;100.00;101179.63;687912;28;1349;-49
2021/10/26 01:35:33;;;;;;;11.93;6.80;;;;;;;9.84;100.00;101171.78;686829;28;1125;-51
2021/10/26 01:35:54;;;;;;;10.52;6.50;;;;;;;9.83;100.00;101176.16;689383;28;1235;-51
2021/10/26 01:36:17;;;;;;;9.07;6.40;;;;;;;9.84;100.00;101172.69;683605;28;1165;-53
2021/10/26 01:36:37;;;;;;;9.85;6.28;;;;;;;9.84;100.00;101169.19;684424;28;2711;-54
2021/10/26 01:37:02;;;;;;;8.93;6.40;;;;;;;9.84;100.00;101171.78;682018;28;1257;-50
2021/10/26 01:37:24;;;;;;;9.02;6.60;;;;;;;9.88;100.00;101169.25;681470;28;1547;-53
2021/10/26 01:37:45;;;;;;;8.65;6.60;;;;;;;9.89;100.00;101175.31;682296;28;5303;-53
2021/10/26 01:38:07;;;;;;;8.48;6.57;;;;;;;9.89;100.00;101180.53;688054;28;1504;-50
2021/10/26 01:38:28;;;;;;;9.15;6.80;;;;;;;9.89;100.00;101180.53;689829;28;1337;-51
2021/10/26 01:38:49;;;;;;;10.30;7.13;;;;;;;9.87;100.00;101172.69;688569;28;1283;-51
2021/10/26 01:39:09;;;;;;;10.30;7.20;;;;;;;9.88;100.00;101177.06;688345;28;1389;-54
2021/10/26 01:39:31;;;;;;;11.38;7.15;;;;;;;9.87;100.00;101177.94;690769;28;4109;-52
2021/10/26 01:39:52;;;;;;;11.85;7.40;;;;;;;9.87;100.00;101175.31;692017;28;3867;-53
2021/10/26 01:40:13;;;;;;;9.27;7.00;;;;;;;9.89;100.00;101178.78;692202;28;1498;-51
2021/10/26 01:40:34;;;;;;;9.85;6.95;;;;;;;9.89;100.00;101181.41;689699;28;1291;-52
2021/10/26 01:40:54;;;;;;;10.40;7.13;;;;;;;9.88;100.00;101184.91;692202;28;5448;-52
2021/10/26 01:41:15;;;;;;;10.23;7.32;;;;;;;9.87;100.00;101177.94;690265;28;1046;-54
2021/10/26 01:41:36;;;;;;;9.50;6.70;;;;;;;9.88;100.00;101170.94;685521;28;1318;-53
2021/10/26 01:41:57;;;;;;;9.60;6.50;;;;;;;9.87;100.00;101175.31;686568;28;942;-50
2021/10/26 01:42:18;;;;;;;9.98;7.50;;;;;;;9.87;100.00;101182.25;686001;28;1225;-51
2021/10/26 01:42:38;;;;;;;9.75;7.07;;;;;;;9.86;100.00;101180.53;684998;28;1314;-50